aviador You're here:

KAPC Decoded Metar

NAPA in CA, USA
Report Time2018-06-23 12:54:00
UTC Time2018-06-23 13:51:50
Flight Rules vfr VFR
Wind100° at 03 kt
W.Decomp.*RWY 06: 2.7 kt HW 1.3 kt RCW
RWY 36: 0.3 kt HW 3.0 kt RCW
W.Rank100° ranks 14
Current wind is below 100° avg. (6.0)
Visibility9999 m
Phenomena:N/A
Clouds:N/A
Expected CloudBase > 800 ft AGL from Temp-Dew spread
CeilingNone
Temp12°C (ISA -3)
Dew Point10°C (88% RH)
AAT11.0°C
QNH1009 hPa
Density Alt-3 ft
Elevation43 ft
Report Wrong Elevation
Raw Report
KAPC 231254Z AUTO 10003KT 8SM CLR 12/10 A2979 RMK AO2 SLP079
T01170100=

Extra information for KAPC:More info

Metar Taf Metar & Taf Last 4 Metars F.Rules Stats Wind Profile Meteogram Temp Stats Airport Information Weather charts Add Link Nearby VenuesMetar ALERT Operation Metar Decoded Social comments

AIRNAV info for KAPC